Terminal Aerodrome Forecast
Issued by NWS

Home | Current Version | Previous Version | Text Only | Print | Product List | Glossary On
Versions: 1 2 3 4 5 6 7 8 9 10 11 12 13 14 15 16 17 18 19 20 21 22 23 24 25 26 27 28 29 30 31
251
FTUS45 KBYZ 230520
TAFLVM
TAF
KLVM 230520Z 2306/2406 25015G22KT P6SM VCSH BKN060
     FM231000 28014KT P6SM BKN080
     FM231600 24020G31KT P6SM FEW100 SCT150
     FM240200 22028G42KT P6SM BKN090=

USA.gov is the U.S. government's official web portal to all federal, state and local government web resources and services.